Time;durP1;ratioP1;P1;durP2;ratioP2;P2;SDS_P1;SDS_P2;PMS_P1;PMS_P2;Temp;Humidity;BMP_temperature;BMP_pressure;BME280_temperature;BME280_humidity;BME280_pressure;Samples;Min_cycle;Max_cycle;Signal;HPM_P1;HPM_P2
2023/06/24 00:00:26;;;;;;;4.27;3.03;;;;;;;25.43;58.13;101084.13;5081209;28;20226;-61
2023/06/24 00:02:53;;;;;;;4.90;3.40;;;;;;;25.43;58.06;101089.91;5078075;28;20303;-61
2023/06/24 00:05:19;;;;;;;3.77;2.77;;;;;;;25.43;57.90;101098.59;5088135;28;20657;-61
2023/06/24 00:07:44;;;;;;;5.60;3.37;;;;;;;25.42;58.05;101088.28;5086952;28;20563;-61
2023/06/24 00:10:12;;;;;;;3.47;2.87;;;;;;;25.43;58.03;101089.91;5089556;28;20171;-60
2023/06/24 00:12:38;;;;;;;3.63;3.00;;;;;;;25.42;58.39;101091.16;5090349;28;20161;-61
2023/06/24 00:15:09;;;;;;;5.00;3.30;;;;;;;25.43;57.53;101084.13;5086786;28;20531;-61
2023/06/24 00:17:34;;;;;;;4.37;3.40;;;;;;;25.41;58.18;101092.41;5089267;28;20424;-60
2023/06/24 00:19:59;;;;;;;4.03;2.80;;;;;;;25.41;57.90;101095.28;5089953;28;20803;-61
2023/06/24 00:22:25;;;;;;;3.90;3.27;;;;;;;25.42;58.01;101093.22;5073208;28;20187;-60
2023/06/24 00:24:50;;;;;;;4.60;3.10;;;;;;;25.41;58.17;101098.19;5070067;28;20178;-61
2023/06/24 00:27:16;;;;;;;6.10;3.03;;;;;;;25.41;58.50;101091.56;5072131;28;20558;-61
2023/06/24 00:29:41;;;;;;;3.97;3.30;;;;;;;25.41;57.83;101089.50;5069938;28;20171;-60
2023/06/24 00:32:07;;;;;;;4.07;2.87;;;;;;;25.40;57.98;101099.44;5069461;28;20169;-61
2023/06/24 00:34:32;;;;;;;4.67;3.30;;;;;;;25.39;58.15;101083.28;5072814;28;20273;-61
2023/06/24 00:36:58;;;;;;;4.70;3.60;;;;;;;25.39;58.44;101083.28;5051237;28;20409;-61
2023/06/24 00:39:23;;;;;;;3.67;2.67;;;;;;;25.39;57.75;101077.50;5069709;28;20159;-61
2023/06/24 00:41:49;;;;;;;3.53;2.73;;;;;;;25.39;58.06;101076.69;5052913;28;20956;-60
2023/06/24 00:44:14;;;;;;;6.00;3.13;;;;;;;25.39;58.08;101083.28;5089652;28;20209;-61
2023/06/24 00:46:40;;;;;;;3.90;3.10;;;;;;;25.39;58.12;101094.06;5086991;28;20614;-60
2023/06/24 00:49:05;;;;;;;5.57;3.60;;;;;;;25.38;57.78;101080.84;5089399;28;20634;-61
2023/06/24 00:51:32;;;;;;;3.57;2.80;;;;;;;25.37;57.92;101080.00;5084501;28;20171;-61
2023/06/24 00:53:57;;;;;;;4.57;3.30;;;;;;;25.38;58.02;101086.63;5081304;28;20185;-61
2023/06/24 00:56:26;;;;;;;5.47;3.23;;;;;;;25.37;58.12;101079.16;5087717;28;20868;-61
2023/06/24 00:58:52;;;;;;;4.17;3.33;;;;;;;25.37;57.90;101073.38;5052551;28;20230;-61
2023/06/24 01:01:17;;;;;;;4.90;3.50;;;;;;;25.37;57.87;101082.03;5068683;28;20401;-62
2023/06/24 01:03:42;;;;;;;3.53;2.73;;;;;;;25.37;58.12;101082.03;5080199;28;20409;-60
2023/06/24 01:06:08;;;;;;;4.30;3.07;;;;;;;25.36;58.30;101089.91;5064976;28;20556;-61
2023/06/24 01:08:34;;;;;;;4.23;2.70;;;;;;;25.36;57.81;101089.06;5051201;28;20166;-61
2023/06/24 01:11:00;;;;;;;4.70;3.50;;;;;;;25.36;57.84;101083.28;5075072;28;20190;-60
2023/06/24 01:13:25;;;;;;;3.97;2.67;;;;;;;25.35;57.70;101085.38;5072572;28;20187;-61
2023/06/24 01:15:51;;;;;;;4.17;2.90;;;;;;;25.35;57.77;101088.25;5073719;28;20175;-61
2023/06/24 01:18:20;;;;;;;4.60;3.20;;;;;;;25.35;57.77;101085.38;5089263;28;20182;-61
2023/06/24 01:20:46;;;;;;;4.93;3.70;;;;;;;25.35;58.07;101091.16;5086332;28;20214;-61
2023/06/24 01:23:32;;;;;;;3.70;2.90;;;;;;;25.35;57.58;101093.22;5087834;28;20556;-61
2023/06/24 01:26:21;;;;;;;4.00;3.00;;;;;;;25.34;57.73;101089.47;5089060;28;20628;-61
2023/06/24 01:29:06;;;;;;;4.03;3.10;;;;;;;25.34;57.51;101089.47;5052918;28;20413;-60
2023/06/24 01:31:49;;;;;;;4.00;3.03;;;;;;;25.34;58.00;101100.22;5064948;28;20428;-61
2023/06/24 01:34:40;;;;;;;3.80;2.83;;;;;;;25.32;57.33;101094.84;5088826;28;20434;-61
2023/06/24 01:37:32;;;;;;;5.00;3.40;;;;;;;25.33;57.66;101089.91;5065412;28;20437;-60
2023/06/24 01:40:10;;;;;;;5.27;3.10;;;;;;;25.32;57.65;101089.06;5070514;28;20396;-61
2023/06/24 01:42:38;;;;;;;4.80;3.67;;;;;;;25.32;57.80;101088.22;5085659;28;20432;-61
2023/06/24 01:45:04;;;;;;;3.70;2.93;;;;;;;25.31;57.56;101087.41;5088372;28;20409;-61
2023/06/24 01:47:30;;;;;;;4.30;3.17;;;;;;;25.31;57.64;101084.53;5086184;28;20750;-61
2023/06/24 01:49:55;;;;;;;4.87;3.50;;;;;;;25.30;57.77;101085.78;5050384;28;20832;-61
2023/06/24 01:52:21;;;;;;;3.70;2.90;;;;;;;25.31;57.59;101081.63;5050409;28;20619;-61
2023/06/24 01:54:47;;;;;;;4.47;3.27;;;;;;;25.31;57.93;101075.00;5050128;28;20289;-61
2023/06/24 01:57:12;;;;;;;4.60;3.40;;;;;;;25.29;57.88;101081.19;5049883;28;20694;-61
2023/06/24 01:59:40;;;;;;;3.93;3.17;;;;;;;25.30;57.74;101084.94;5067693;28;20218;-61
2023/06/24 02:02:05;;;;;;;5.07;3.53;;;;;;;25.29;58.04;101086.16;5067399;28;20697;-61
2023/06/24 02:04:31;;;;;;;5.07;3.40;;;;;;;25.29;57.72;101084.09;5086779;28;20424;-61
2023/06/24 02:07:00;;;;;;;4.03;3.33;;;;;;;25.29;57.74;101084.09;5055548;28;20215;-61
2023/06/24 02:09:25;;;;;;;5.20;3.43;;;;;;;25.28;58.00;101085.34;5062579;28;20546;-61
2023/06/24 02:11:51;;;;;;;4.90;4.10;;;;;;;25.28;57.87;101079.56;5065143;28;20428;-61
2023/06/24 02:14:16;;;;;;;4.70;3.53;;;;;;;25.27;57.65;101080.78;5070172;28;20712;-61
2023/06/24 02:16:42;;;;;;;5.07;3.50;;;;;;;25.27;57.67;101077.91;5077761;28;20178;-61
2023/06/24 02:19:07;;;;;;;4.60;3.60;;;;;;;25.27;57.44;101074.16;5087549;28;20212;-61
2023/06/24 02:21:35;;;;;;;4.20;3.20;;;;;;;25.27;57.39;101074.16;5088152;28;20618;-61
2023/06/24 02:24:00;;;;;;;5.10;3.80;;;;;;;25.26;57.61;101076.25;5075221;28;20277;-61
2023/06/24 02:26:25;;;;;;;5.53;3.90;;;;;;;25.26;57.49;101086.97;5049770;28;20445;-61
2023/06/24 02:28:51;;;;;;;4.93;3.97;;;;;;;25.26;57.47;101084.09;5049843;28;20228;-61
2023/06/24 02:31:16;;;;;;;6.27;3.33;;;;;;;25.25;57.90;101088.19;5067919;28;20183;-61
2023/06/24 02:33:42;;;;;;;3.60;3.00;;;;;;;25.25;57.72;101088.19;5062730;28;20198;-61
2023/06/24 02:36:07;;;;;;;5.13;3.67;;;;;;;25.25;57.59;101080.38;5088336;28;20251;-61
2023/06/24 02:38:33;;;;;;;4.33;3.20;;;;;;;25.25;57.72;101082.41;5084406;28;20201;-61
2023/06/24 02:41:00;;;;;;;4.77;3.27;;;;;;;25.25;57.59;101079.50;5087723;28;20186;-61
2023/06/24 02:43:25;;;;;;;3.97;2.70;;;;;;;25.24;57.28;101083.66;5087617;28;20171;-61
2023/06/24 02:45:51;;;;;;;6.00;3.37;;;;;;;25.24;57.48;101087.34;5087809;28;20439;-61
2023/06/24 02:48:16;;;;;;;4.90;2.97;;;;;;;25.23;57.33;101079.09;5074530;28;20183;-62
2023/06/24 02:50:44;;;;;;;5.27;3.30;;;;;;;25.23;57.73;101090.66;5033283;28;20170;-61
2023/06/24 02:53:11;;;;;;;5.20;3.40;;;;;;;25.23;57.51;101085.69;5087336;28;20182;-60
2023/06/24 02:55:36;;;;;;;4.40;3.37;;;;;;;25.23;57.53;101096.44;5087700;28;20412;-61
2023/06/24 02:58:02;;;;;;;4.80;3.40;;;;;;;25.23;57.75;101096.44;5070309;28;20441;-61
2023/06/24 03:00:27;;;;;;;4.30;3.40;;;;;;;25.22;57.40;101095.59;5067287;28;20227;-61
2023/06/24 03:02:53;;;;;;;4.20;3.30;;;;;;;25.22;57.29;101089.81;5078281;28;20220;-61
2023/06/24 03:05:18;;;;;;;5.93;3.43;;;;;;;25.21;57.41;101091.06;5049725;28;20183;-61
2023/06/24 03:07:44;;;;;;;4.33;3.13;;;;;;;25.20;57.47;101092.31;5079636;28;20203;-61
2023/06/24 03:10:10;;;;;;;4.93;3.20;;;;;;;25.20;57.51;101086.53;5069411;28;20167;-61
2023/06/24 03:12:36;;;;;;;5.80;3.97;;;;;;;25.20;57.14;101097.25;5059899;28;20179;-61
2023/06/24 03:15:01;;;;;;;4.83;3.30;;;;;;;25.19;57.58;101102.19;5076096;28;20432;-61
2023/06/24 03:17:27;;;;;;;4.20;3.50;;;;;;;25.20;57.25;101097.25;5087535;28;20193;-61
2023/06/24 03:19:52;;;;;;;3.60;2.87;;;;;;;25.19;57.68;101098.50;5087555;28;20635;-61
2023/06/24 03:22:17;;;;;;;3.97;3.30;;;;;;;25.19;57.63;101107.97;5053293;28;20191;-61
2023/06/24 03:24:43;;;;;;;5.00;3.40;;;;;;;25.19;57.67;101107.16;5079625;28;20179;-61
2023/06/24 03:27:08;;;;;;;4.10;3.23;;;;;;;25.17;57.47;101101.78;5051389;28;20206;-61
2023/06/24 03:29:34;;;;;;;4.93;3.60;;;;;;;25.18;57.49;101100.53;5086769;28;20702;-61
2023/06/24 03:31:59;;;;;;;3.97;2.80;;;;;;;25.17;57.53;101110.44;5078694;28;20214;-61
2023/06/24 03:34:26;;;;;;;4.50;3.47;;;;;;;25.16;58.10;101108.81;5084517;28;20198;-61
2023/06/24 03:36:54;;;;;;;5.57;3.00;;;;;;;25.17;57.44;101107.56;5088137;28;20158;-61
2023/06/24 03:39:21;;;;;;;5.17;3.70;;;;;;;25.17;57.85;101116.22;5088220;28;20919;-61
2023/06/24 03:41:46;;;;;;;4.40;3.20;;;;;;;25.16;57.44;101108.81;5089717;28;21013;-61
2023/06/24 03:44:12;;;;;;;3.90;3.27;;;;;;;25.16;57.47;101111.69;5075618;28;20436;-61
2023/06/24 03:46:37;;;;;;;5.00;3.70;;;;;;;25.17;57.69;101103.84;5088703;28;20202;-61
2023/06/24 03:49:03;;;;;;;3.90;2.80;;;;;;;25.15;57.63;101112.94;5075820;28;20197;-61
2023/06/24 03:51:28;;;;;;;4.60;3.37;;;;;;;25.14;57.16;101111.25;5079168;28;20171;-61
2023/06/24 03:53:54;;;;;;;4.60;3.43;;;;;;;25.15;57.16;101115.81;5084737;28;20186;-60
2023/06/24 03:56:19;;;;;;;4.93;3.53;;;;;;;25.14;57.19;101116.22;5053105;28;20187;-59
2023/06/24 03:58:45;;;;;;;4.70;3.47;;;;;;;25.14;57.38;101113.34;5069147;28;20687;-60
2023/06/24 04:01:10;;;;;;;4.33;3.47;;;;;;;25.14;57.17;101119.94;5070092;28;20182;-59
2023/06/24 04:03:36;;;;;;;5.00;3.60;;;;;;;25.14;57.35;101122.81;5073002;28;20642;-61
2023/06/24 04:06:01;;;;;;;5.70;3.40;;;;;;;25.13;57.15;101124.06;5087018;28;20251;-60
2023/06/24 04:08:29;;;;;;;5.40;3.57;;;;;;;25.13;57.37;101129.84;5086110;28;20187;-61
2023/06/24 04:10:59;;;;;;;4.80;3.70;;;;;;;25.13;57.28;101135.63;5070382;28;20289;-61
2023/06/24 04:13:25;;;;;;;5.00;3.10;;;;;;;25.14;57.67;101142.25;5079182;28;20417;-61
2023/06/24 04:15:51;;;;;;;6.03;3.40;;;;;;;25.12;57.28;101139.75;5088252;28;20440;-61
2023/06/24 04:18:16;;;;;;;4.40;3.40;;;;;;;25.11;57.06;101138.09;5072088;28;20163;-61
2023/06/24 04:20:42;;;;;;;3.80;3.07;;;;;;;25.11;57.57;101131.47;5069703;28;20189;-61
2023/06/24 04:23:09;;;;;;;4.30;3.13;;;;;;;25.11;57.21;101141.00;5080605;28;20374;-61
2023/06/24 04:25:35;;;;;;;4.90;3.27;;;;;;;25.11;57.52;101135.22;5072390;28;20175;-61
2023/06/24 04:28:01;;;;;;;6.40;3.00;;;;;;;25.11;57.33;101143.03;5086267;28;21093;-61
2023/06/24 04:30:26;;;;;;;4.90;3.00;;;;;;;25.10;57.47;101142.22;5090323;28;20604;-61
2023/06/24 04:32:52;;;;;;;4.07;3.13;;;;;;;25.11;57.07;101148.81;5090046;28;20178;-60
2023/06/24 04:35:17;;;;;;;4.10;2.90;;;;;;;25.09;57.14;101137.66;5071464;28;20447;-61
2023/06/24 04:37:43;;;;;;;5.07;3.03;;;;;;;25.10;57.07;101142.22;5085842;28;20227;-61
2023/06/24 04:40:09;;;;;;;6.40;3.30;;;;;;;25.10;57.24;101138.50;5089549;28;20170;-60
2023/06/24 04:42:35;;;;;;;4.63;3.20;;;;;;;25.12;56.85;101147.56;5089355;28;20178;-61
2023/06/24 04:45:01;;;;;;;3.80;3.40;;;;;;;25.13;57.11;101152.97;5083454;28;20794;-61
2023/06/24 04:47:26;;;;;;;4.03;2.90;;;;;;;25.13;57.56;101150.06;5087333;28;20198;-61
2023/06/24 04:49:52;;;;;;;7.90;2.80;;;;;;;25.12;57.19;101154.19;5084373;28;20495;-60
2023/06/24 04:52:17;;;;;;;3.87;3.00;;;;;;;25.13;57.10;101158.75;5069597;28;20174;-60
2023/06/24 04:54:43;;;;;;;4.40;3.00;;;;;;;25.13;57.10;101161.63;5088004;28;20590;-60
2023/06/24 04:57:09;;;;;;;4.23;3.10;;;;;;;25.14;56.96;101169.06;5087765;28;20691;-60
2023/06/24 04:59:36;;;;;;;3.93;2.97;;;;;;;25.14;56.83;101171.13;5080220;28;20749;-60
2023/06/24 05:02:01;;;;;;;4.40;3.63;;;;;;;25.15;56.56;101169.91;5070078;28;20449;-60
2023/06/24 05:04:29;;;;;;;4.30;3.30;;;;;;;25.15;57.19;101164.13;5068127;28;20409;-60
2023/06/24 05:06:55;;;;;;;4.47;2.73;;;;;;;25.16;57.58;101162.88;5070686;28;20206;-60
2023/06/24 05:09:20;;;;;;;4.60;3.33;;;;;;;25.15;57.11;101164.97;5068305;28;20919;-60
2023/06/24 05:11:46;;;;;;;4.50;3.57;;;;;;;25.16;57.26;101166.63;5068515;28;20182;-60
2023/06/24 05:14:11;;;;;;;4.30;3.27;;;;;;;25.18;56.97;101163.31;5070563;28;20669;-60
2023/06/24 05:16:37;;;;;;;3.67;2.80;;;;;;;25.19;57.18;101171.56;5082749;28;20175;-61
2023/06/24 05:19:02;;;;;;;5.23;3.37;;;;;;;25.20;57.40;101179.03;5083599;28;20530;-60
2023/06/24 05:21:28;;;;;;;5.00;2.90;;;;;;;25.21;57.81;101168.28;5069037;28;20170;-61
2023/06/24 05:23:53;;;;;;;5.63;3.33;;;;;;;25.21;57.01;101180.69;5087841;28;20186;-60
2023/06/24 05:26:19;;;;;;;4.20;3.13;;;;;;;25.20;57.32;101176.13;5072867;28;20670;-60
2023/06/24 05:28:44;;;;;;;7.10;3.97;;;;;;;25.21;57.34;101174.91;5050455;28;20217;-60
2023/06/24 05:31:10;;;;;;;5.10;3.80;;;;;;;25.20;57.74;101179.03;5068514;28;20163;-60
2023/06/24 05:33:35;;;;;;;7.80;3.97;;;;;;;25.20;58.08;101184.81;5083430;28;20175;-60
2023/06/24 05:36:01;;;;;;;5.63;3.20;;;;;;;25.19;57.36;101177.34;5078197;28;20182;-60
2023/06/24 05:38:26;;;;;;;4.00;2.87;;;;;;;25.18;57.61;101174.88;5070860;28;20212;-60
2023/06/24 05:40:51;;;;;;;4.93;3.30;;;;;;;25.17;57.29;101179.81;5088790;28;20182;-60
2023/06/24 05:43:17;;;;;;;4.67;3.10;;;;;;;25.17;57.35;101182.72;5066639;28;20191;-60
2023/06/24 05:45:43;;;;;;;4.53;2.70;;;;;;;25.18;57.43;101186.44;5088689;28;20181;-60
2023/06/24 05:48:08;;;;;;;4.50;3.50;;;;;;;25.17;57.41;101179.81;5069660;28;20198;-61
2023/06/24 05:50:34;;;;;;;4.83;2.90;;;;;;;25.19;56.79;101183.13;5070863;28;20455;-60
2023/06/24 05:52:59;;;;;;;8.20;3.50;;;;;;;25.19;56.86;101188.91;5067410;28;20171;-60
2023/06/24 05:55:24;;;;;;;5.80;3.40;;;;;;;25.19;57.29;101188.09;5070683;28;20194;-61
2023/06/24 05:57:50;;;;;;;6.20;3.10;;;;;;;25.17;56.56;101196.31;5068470;28;20179;-61
2023/06/24 06:00:17;;;;;;;6.90;3.87;;;;;;;25.19;57.03;101185.22;5068304;28;20219;-60
2023/06/24 06:02:43;;;;;;;4.77;3.87;;;;;;;25.20;57.23;101190.59;5063779;28;21005;-60
2023/06/24 06:05:08;;;;;;;4.83;3.53;;;;;;;25.23;57.10;101195.53;5068052;28;20424;-61
2023/06/24 06:07:34;;;;;;;5.20;3.70;;;;;;;25.24;56.86;101187.72;5076496;28;20201;-60
2023/06/24 06:10:00;;;;;;;6.80;3.63;;;;;;;25.25;56.53;101181.56;5075399;28;20340;-61
2023/06/24 06:12:26;;;;;;;5.60;3.77;;;;;;;25.27;56.36;101190.66;5068354;28;20410;-61
2023/06/24 06:14:51;;;;;;;4.40;3.40;;;;;;;25.28;56.98;101179.91;5078632;28;20185;-60
2023/06/24 06:17:16;;;;;;;5.67;3.70;;;;;;;25.27;57.33;101184.88;5085539;28;20171;-60
2023/06/24 06:19:42;;;;;;;4.83;3.67;;;;;;;25.25;57.24;101187.34;5089154;28;20177;-60
2023/06/24 06:22:07;;;;;;;4.70;3.30;;;;;;;25.24;57.00;101188.53;5090876;28;20272;-60
2023/06/24 06:24:33;;;;;;;5.03;3.70;;;;;;;25.22;56.56;101187.25;5064089;28;20660;-60
2023/06/24 06:26:59;;;;;;;4.70;3.73;;;;;;;25.21;56.58;101188.50;5069133;28;20269;-60
2023/06/24 06:29:24;;;;;;;5.97;3.83;;;;;;;25.19;56.72;101185.22;5081537;28;20185;-60
2023/06/24 06:31:50;;;;;;;4.43;3.43;;;;;;;25.17;56.60;101188.50;5086262;28;20221;-60
2023/06/24 06:34:15;;;;;;;4.30;3.27;;;;;;;25.17;56.66;101190.53;5089574;28;20260;-61
2023/06/24 06:36:41;;;;;;;7.80;3.90;;;;;;;25.17;56.93;101187.66;5085149;28;20174;-60
2023/06/24 06:39:06;;;;;;;5.97;3.53;;;;;;;25.15;56.67;101188.09;5088029;28;20178;-60
2023/06/24 06:41:31;;;;;;;9.93;3.90;;;;;;;25.15;56.94;101188.09;5086025;28;20239;-61
2023/06/24 06:43:57;;;;;;;4.63;3.53;;;;;;;25.15;56.91;101185.19;5087357;28;20182;-61
2023/06/24 06:46:23;;;;;;;4.23;3.60;;;;;;;25.15;56.98;101185.19;5077587;28;20579;-60
2023/06/24 06:48:48;;;;;;;5.00;3.30;;;;;;;25.15;56.73;101188.09;5075694;28;20700;-60
2023/06/24 06:51:14;;;;;;;5.47;3.57;;;;;;;25.16;57.61;101186.00;5074576;28;20175;-60
2023/06/24 06:53:39;;;;;;;5.53;3.57;;;;;;;25.18;56.97;101181.47;5085529;28;20556;-61
2023/06/24 06:56:04;;;;;;;5.60;3.60;;;;;;;25.18;56.73;101187.25;5078008;28;20232;-60
2023/06/24 06:58:30;;;;;;;5.90;3.97;;;;;;;25.18;56.84;101177.78;5087603;28;20170;-60
2023/06/24 07:00:55;;;;;;;5.17;3.60;;;;;;;25.18;56.77;101181.47;5056899;28;20187;-60
2023/06/24 07:03:21;;;;;;;6.17;3.97;;;;;;;25.17;56.83;101182.72;5067678;28;20186;-60
2023/06/24 07:05:47;;;;;;;4.27;3.53;;;;;;;25.17;56.64;101173.19;5064130;28;20178;-60
2023/06/24 07:08:12;;;;;;;3.90;3.23;;;;;;;25.16;56.91;101177.34;5071159;28;20637;-61
2023/06/24 07:10:37;;;;;;;5.33;3.77;;;;;;;25.16;56.83;101181.06;5091523;28;20544;-60
2023/06/24 07:13:03;;;;;;;6.53;3.70;;;;;;;25.14;56.67;101174.84;5091655;28;20633;-61
2023/06/24 07:15:28;;;;;;;4.87;3.80;;;;;;;25.15;56.47;101175.69;5091248;28;20231;-60
2023/06/24 07:17:54;;;;;;;7.07;3.23;;;;;;;25.15;56.67;101175.69;5077606;28;20535;-61
2023/06/24 07:20:20;;;;;;;4.63;3.40;;;;;;;25.13;56.54;101173.19;5070995;28;20749;-60
2023/06/24 07:22:46;;;;;;;5.50;3.90;;;;;;;25.13;56.35;101173.19;5080820;28;20301;-60
2023/06/24 07:25:11;;;;;;;5.03;3.80;;;;;;;25.13;56.66;101169.50;5081111;28;20437;-61
2023/06/24 07:27:37;;;;;;;5.73;3.87;;;;;;;25.11;56.36;101169.88;5074361;28;20201;-61
2023/06/24 07:30:04;;;;;;;6.17;4.40;;;;;;;25.12;56.62;101164.91;5091023;28;20597;-61
2023/06/24 07:32:30;;;;;;;4.33;3.63;;;;;;;25.12;56.78;101168.66;5075227;28;20610;-61
2023/06/24 07:34:55;;;;;;;4.30;3.47;;;;;;;25.10;56.61;101165.34;5088603;28;20442;-61
2023/06/24 07:37:21;;;;;;;5.50;3.93;;;;;;;25.12;56.39;101167.81;5080955;28;20183;-61
2023/06/24 07:39:46;;;;;;;4.90;3.60;;;;;;;25.11;56.70;101164.09;5089350;28;20186;-61
2023/06/24 07:42:11;;;;;;;5.60;4.30;;;;;;;25.11;56.80;101166.16;5090677;28;20190;-61
2023/06/24 07:44:39;;;;;;;4.10;3.47;;;;;;;25.10;56.84;101171.13;5090193;28;20171;-61
2023/06/24 07:47:06;;;;;;;4.77;3.70;;;;;;;25.10;56.64;101171.13;5086980;28;20301;-61
2023/06/24 07:49:31;;;;;;;5.37;3.60;;;;;;;25.09;56.78;101166.56;5090758;28;20423;-61
2023/06/24 07:51:56;;;;;;;7.07;4.23;;;;;;;25.09;57.06;101163.66;5090842;28;20408;-61
2023/06/24 07:54:22;;;;;;;6.07;3.97;;;;;;;25.08;56.37;101164.91;5090633;28;20170;-60
2023/06/24 07:56:47;;;;;;;4.83;3.53;;;;;;;25.08;56.72;101164.91;5086787;28;20182;-61
2023/06/24 07:59:13;;;;;;;4.73;3.63;;;;;;;25.08;56.58;101156.22;5072792;28;20597;-61
2023/06/24 08:01:38;;;;;;;5.70;3.63;;;;;;;25.08;56.69;101159.13;5079123;28;20657;-61
2023/06/24 08:04:05;;;;;;;4.97;3.60;;;;;;;25.08;56.55;101158.31;5090104;28;20202;-61
2023/06/24 08:06:31;;;;;;;5.17;3.70;;;;;;;25.08;56.49;101164.09;5088093;28;20593;-61
2023/06/24 08:08:56;;;;;;;4.50;3.00;;;;;;;25.06;56.81;101164.50;5089618;28;20264;-61
2023/06/24 08:11:22;;;;;;;5.03;3.70;;;;;;;25.07;56.94;101147.97;5089311;28;20417;-61
2023/06/24 08:13:47;;;;;;;4.50;3.53;;;;;;;25.07;56.33;101157.47;5078556;28;20186;-61
2023/06/24 08:16:16;;;;;;;4.90;3.93;;;;;;;25.05;56.83;101154.19;5075835;28;20182;-61
2023/06/24 08:18:42;;;;;;;6.30;4.47;;;;;;;25.06;56.63;101150.03;5069378;28;20681;-60
2023/06/24 08:21:07;;;;;;;5.00;3.80;;;;;;;25.06;56.81;101155.81;5070820;28;20439;-60
2023/06/24 08:23:33;;;;;;;4.90;3.13;;;;;;;25.05;56.38;101154.19;5089102;28;20189;-61
2023/06/24 08:25:58;;;;;;;6.13;3.67;;;;;;;25.06;56.46;101155.81;5076399;28;20194;-60
2023/06/24 08:28:23;;;;;;;5.83;3.90;;;;;;;25.07;56.53;101147.97;5069151;28;20206;-60
2023/06/24 08:30:49;;;;;;;5.00;4.00;;;;;;;25.07;56.50;101142.19;5072033;28;20247;-60
2023/06/24 08:33:14;;;;;;;5.50;3.70;;;;;;;25.06;56.30;101135.59;5069997;28;20183;-61
2023/06/24 08:35:40;;;;;;;8.53;3.77;;;;;;;25.06;56.61;101135.59;5069744;28;20171;-60
2023/06/24 08:38:05;;;;;;;7.30;4.30;;;;;;;25.07;56.40;101139.28;5069858;28;20229;-60
2023/06/24 08:40:31;;;;;;;5.83;4.17;;;;;;;25.06;56.71;101138.50;5073088;28;20179;-60
2023/06/24 08:42:58;;;;;;;7.43;3.63;;;;;;;25.06;56.79;101126.94;5060993;28;20610;-61
2023/06/24 08:45:23;;;;;;;5.47;3.80;;;;;;;25.06;56.11;101128.97;5064254;28;20187;-61
2023/06/24 08:47:49;;;;;;;5.50;3.80;;;;;;;25.05;56.86;101136.84;5088989;28;21280;-60
2023/06/24 08:50:15;;;;;;;6.53;3.90;;;;;;;25.06;56.81;101132.72;5088522;28;20194;-61
2023/06/24 08:52:46;;;;;;;5.63;4.10;;;;;;;25.06;56.76;101126.94;5070437;28;20186;-61
2023/06/24 08:55:13;;;;;;;5.60;4.23;;;;;;;25.07;56.63;101127.75;5085030;28;20445;-61
2023/06/24 08:57:39;;;;;;;5.23;3.93;;;;;;;25.07;56.25;101136.41;5088761;28;21261;-61
2023/06/24 09:00:08;;;;;;;5.67;4.10;;;;;;;25.08;56.62;101132.31;5084059;28;20488;-61
2023/06/24 09:02:37;;;;;;;9.43;4.10;;;;;;;25.07;56.15;101125.69;5079570;28;20187;-61
2023/06/24 09:05:06;;;;;;;5.83;3.50;;;;;;;25.06;56.23;101126.94;5068392;28;20827;-61
2023/06/24 09:07:32;;;;;;;6.77;4.30;;;;;;;25.07;56.64;101119.91;5083286;28;20467;-62
2023/06/24 09:09:57;;;;;;;5.50;4.60;;;;;;;25.07;56.50;101121.97;5088751;28;20412;-61
2023/06/24 09:12:24;;;;;;;8.77;4.50;;;;;;;25.07;56.46;101127.75;5077437;28;20214;-61
2023/06/24 09:14:50;;;;;;;7.50;3.93;;;;;;;25.07;56.49;101116.19;5034075;28;20620;-61
2023/06/24 09:17:15;;;;;;;5.90;4.27;;;;;;;25.07;56.72;101117.00;5084788;28;20515;-61
2023/06/24 09:19:41;;;;;;;5.73;4.20;;;;;;;25.08;56.78;101114.97;5073765;28;20178;-61
2023/06/24 09:22:07;;;;;;;4.77;3.60;;;;;;;25.09;56.26;101107.94;5087923;28;20261;-61
2023/06/24 09:24:33;;;;;;;6.67;4.40;;;;;;;25.08;56.47;101097.63;5073630;28;20495;-61
2023/06/24 09:26:59;;;;;;;5.60;4.30;;;;;;;25.09;56.32;101100.09;5087379;28;20499;-61
2023/06/24 09:29:29;;;;;;;6.67;4.57;;;;;;;25.07;56.18;101096.78;5086902;28;20167;-61
2023/06/24 09:31:56;;;;;;;8.83;4.97;;;;;;;25.07;56.10;101081.50;5075562;28;20218;-61
2023/06/24 09:34:22;;;;;;;7.17;4.77;;;;;;;25.08;55.59;101086.88;5068379;28;20425;-60
2023/06/24 09:36:51;;;;;;;8.40;4.33;;;;;;;25.09;56.14;101076.16;5077211;28;20502;-60
2023/06/24 09:39:17;;;;;;;7.30;4.50;;;;;;;25.07;55.31;101070.78;5049937;28;20186;-61
2023/06/24 09:41:42;;;;;;;6.30;4.50;;;;;;;25.08;54.03;101078.22;5056281;28;20439;-61
2023/06/24 09:44:11;;;;;;;7.70;4.93;;;;;;;25.10;54.41;101072.03;5078580;28;20646;-61
2023/06/24 09:46:37;;;;;;;5.67;4.20;;;;;;;25.11;54.39;101071.63;5073882;28;20651;-61
2023/06/24 09:49:05;;;;;;;5.47;3.80;;;;;;;25.10;53.76;101069.97;5070303;28;20441;-61
2023/06/24 09:51:38;;;;;;;5.80;4.20;;;;;;;25.11;53.91;101065.00;5067580;28;20266;-61
2023/06/24 09:54:06;;;;;;;5.40;3.90;;;;;;;25.11;53.38;101070.78;5060745;28;20506;-61
2023/06/24 09:56:37;;;;;;;6.13;4.00;;;;;;;25.10;53.51;101069.97;5046191;28;20426;-61
2023/06/24 09:59:04;;;;;;;5.30;4.30;;;;;;;25.10;53.40;101061.31;5076570;28;20554;-61
2023/06/24 10:01:29;;;;;;;6.90;4.70;;;;;;;25.11;53.52;101059.22;5074728;28;20449;-61
2023/06/24 10:03:55;;;;;;;6.00;4.40;;;;;;;25.10;53.57;101064.19;5033119;28;20441;-61
2023/06/24 10:06:20;;;;;;;4.80;3.43;;;;;;;25.11;53.42;101056.34;5076620;28;20210;-61
2023/06/24 10:08:46;;;;;;;5.63;3.37;;;;;;;25.10;53.35;101052.63;5080827;28;20243;-61
2023/06/24 10:11:11;;;;;;;5.57;3.93;;;;;;;25.10;53.17;101052.63;5067979;28;20494;-61
2023/06/24 10:13:37;;;;;;;5.93;4.33;;;;;;;25.11;53.46;101053.44;5071304;28;20190;-61
2023/06/24 10:16:02;;;;;;;5.87;4.50;;;;;;;25.11;52.86;101048.50;5077709;28;20566;-61
2023/06/24 10:18:30;;;;;;;5.77;4.20;;;;;;;25.13;53.47;101043.13;5067975;28;20210;-61
2023/06/24 10:20:57;;;;;;;6.00;4.77;;;;;;;25.16;53.65;101032.81;5070522;28;20217;-60
2023/06/24 10:23:22;;;;;;;5.60;4.57;;;;;;;25.15;53.49;101032.00;5084786;28;20782;-61
2023/06/24 10:25:48;;;;;;;6.63;4.07;;;;;;;25.18;53.45;101030.38;5085135;28;20423;-60
2023/06/24 10:28:13;;;;;;;5.70;4.63;;;;;;;25.19;53.11;101026.22;5077344;28;20210;-61
2023/06/24 10:30:39;;;;;;;5.77;4.23;;;;;;;25.19;58.29;101029.13;5081910;28;20178;-61
2023/06/24 10:33:04;;;;;;;5.20;4.20;;;;;;;25.23;59.23;101016.31;5031742;28;20222;-61
2023/06/24 10:35:30;;;;;;;8.67;4.10;;;;;;;25.27;59.01;101017.19;5061414;28;20190;-61
2023/06/24 10:37:59;;;;;;;6.33;4.40;;;;;;;25.27;59.22;101016.34;5056607;28;20648;-61
2023/06/24 10:40:38;;;;;;;9.03;4.47;;;;;;;25.29;58.91;101011.81;5065122;28;20201;-61
2023/06/24 10:43:22;;;;;;;6.50;4.53;;;;;;;25.31;57.71;101015.16;5071441;28;20445;-61
2023/06/24 10:45:58;;;;;;;5.53;4.30;;;;;;;25.33;58.13;101015.56;5075613;28;20921;-61
2023/06/24 10:48:23;;;;;;;4.47;3.67;;;;;;;25.39;57.42;101005.22;5065850;28;20460;-61
2023/06/24 10:50:49;;;;;;;8.10;4.33;;;;;;;25.39;57.27;101001.53;5079677;28;20916;-61
2023/06/24 10:53:15;;;;;;;8.70;4.67;;;;;;;25.40;56.16;100995.34;5040278;28;20663;-61
2023/06/24 10:55:40;;;;;;;7.30;3.70;;;;;;;25.44;56.28;100993.25;5045281;28;20432;-60
2023/06/24 10:58:10;;;;;;;8.73;4.90;;;;;;;25.43;53.85;100991.59;5049589;28;20265;-60
2023/06/24 11:00:35;;;;;;;5.90;4.47;;;;;;;25.44;53.18;100986.66;5052228;28;20924;-61
2023/06/24 11:03:14;;;;;;;7.57;4.90;;;;;;;25.41;52.98;100988.31;5072707;28;20448;-60
2023/06/24 11:05:43;;;;;;;7.17;5.53;;;;;;;25.47;53.45;100985.81;5049148;28;20179;-62
2023/06/24 11:08:09;;;;;;;11.33;5.90;;;;;;;25.48;53.07;100982.53;5065235;28;20550;-61
2023/06/24 11:10:44;;;;;;;10.10;5.17;;;;;;;25.43;51.77;100976.34;5067135;28;20436;-61
2023/06/24 11:13:10;;;;;;;8.83;5.60;;;;;;;25.42;52.51;100977.56;5069016;28;20175;-60
2023/06/24 11:15:35;;;;;;;11.30;5.60;;;;;;;25.38;52.42;100976.75;5065240;28;21289;-60
2023/06/24 11:18:02;;;;;;;7.40;5.80;;;;;;;25.37;52.23;100977.97;5072069;28;20578;-61
2023/06/24 11:20:28;;;;;;;9.57;4.53;;;;;;;25.36;52.76;100968.47;5047720;28;20213;-61